Time;durP1;ratioP1;P1;durP2;ratioP2;P2;SDS_P1;SDS_P2;PMS_P1;PMS_P2;Temp;Humidity;BMP_temperature;BMP_pressure;BME280_temperature;BME280_humidity;BME280_pressure;Samples;Min_cycle;Max_cycle;Signal;HPM_P1;HPM_P2
2022/03/15 04:26:25;;;;;;;37.97;22.67;;;13.40;2201.60;;;;;;4902556;29;20090;-80
2022/03/15 04:29:36;;;;;;;34.42;21.50;;;13.30;2201.60;;;;;;4901063;29;20028;-81
2022/03/15 04:42:52;;;;;;;;;;;;;;;;;;;;;
2022/03/15 04:46:00;;;;;;;91.35;44.55;;;13.50;2201.60;;;;;;4856225;29;20048;-81
2022/03/15 04:48:35;;;;;;;68.35;36.10;;;13.50;2201.60;;;;;;4852955;29;20064;-82
2022/03/15 04:51:17;;;;;;;105.03;57.35;;;13.50;2201.60;;;;;;4844456;29;20113;-79
2022/03/15 04:54:41;;;;;;;71.47;37.78;;;13.40;2201.60;;;;;;4843963;29;20038;-80
2022/03/15 04:57:06;;;;;;;;;;;13.40;2201.60;;;;;;4839988;29;20049;-81
2022/03/15 04:59:51;;;;;;;60.85;32.15;;;13.50;2201.60;;;;;;4859247;29;19904;-81
2022/03/15 05:02:51;;;;;;;54.78;32.95;;;13.40;2201.60;;;;;;4874049;29;20315;-79
2022/03/15 05:06:21;;;;;;;55.33;31.17;;;13.40;2201.60;;;;;;4915545;29;20040;-80
2022/03/15 05:12:20;;;;;;;84.13;44.53;;;13.40;2201.60;;;;;;4917483;29;20028;-78
2022/03/15 05:15:15;;;;;;;101.72;52.05;;;13.50;2201.60;;;;;;4900504;29;20470;-81
2022/03/15 05:18:34;;;;;;;120.38;62.92;;;13.30;2201.60;;;;;;4900516;29;20103;-78
2022/03/15 05:21:27;;;;;;;115.50;58.00;;;13.30;2201.60;;;;;;4899946;29;20390;-80
2022/03/15 05:23:55;;;;;;;;;;;13.20;2201.60;;;;;;4901234;29;20028;-80
2022/03/15 05:26:35;;;;;;;89.90;51.80;;;13.10;2201.60;;;;;;4900315;29;19967;-79
2022/03/15 05:29:43;;;;;;;;;;;;;;;;;;;;;
2022/03/15 05:33:31;;;;;;;;;;;;;;;;;;;;;
2022/03/15 05:36:55;;;;;;;;;;;;;;;;;;;;;
2022/03/15 05:43:50;;;;;;;60.85;37.72;;;12.90;2201.60;;;;;;4821745;29;20051;-82
2022/03/15 05:50:43;;;;;;;;;;;;;;;;;;;;;
2022/03/15 05:54:20;;;;;;;80.60;44.83;;;13.00;2201.60;;;;;;4778182;30;20047;-77
2022/03/15 06:00:42;;;;;;;;;;;;;;;;;;;;;
2022/03/15 06:03:37;;;;;;;68.50;38.35;;;13.30;2201.60;;;;;;4750125;30;20044;-82
2022/03/15 06:06:14;;;;;;;64.95;36.35;;;13.10;2201.60;;;;;;4793714;29;20027;-80
2022/03/15 06:08:45;;;;;;;63.03;36.45;;;13.20;2201.60;;;;;;4806985;29;20029;-78
2022/03/15 06:15:26;;;;;;;103.07;59.65;;;13.20;2201.60;;;;;;4916550;29;20040;-79
2022/03/15 07:01:53;;;;;;;135.50;93.97;;;26.20;2201.60;;;;;;4919312;29;20024;-77
2022/03/15 07:05:03;;;;;;;91.28;60.92;;;25.80;2201.60;;;;;;4902900;29;20035;-76
2022/03/15 07:10:20;;;;;;;73.72;50.15;;;26.40;2201.60;;;;;;4892092;29;20060;-78
2022/03/15 07:12:57;;;;;;;64.45;44.08;;;26.50;2201.60;;;;;;4882558;29;20044;-78
2022/03/15 08:18:17;;;;;;;49.08;26.80;;;102.70;2227.20;;;;;;4899842;29;20146;-80
2022/03/15 08:20:45;;;;;;;45.45;28.38;;;102.90;2227.20;;;;;;4805584;29;20092;-76
2022/03/15 08:26:34;;;;;;;40.42;23.67;;;103.20;2227.20;;;;;;4857021;29;20025;-80
2022/03/15 08:28:59;;;;;;;34.63;22.90;;;128.10;2252.80;;;;;;4883168;29;20031;-82
2022/03/15 08:31:26;;;;;;;39.25;24.10;;;128.10;2252.80;;;;;;4891245;29;20052;-79
2022/03/15 08:33:54;;;;;;;36.33;25.92;;;128.30;2252.80;;;;;;4901502;29;20083;-80
2022/03/15 08:36:20;;;;;;;34.20;24.35;;;128.40;2252.80;;;;;;4901406;29;20115;-79
2022/03/15 08:38:46;;;;;;;39.00;21.52;;;128.50;2252.80;;;;;;4901168;29;20123;-80
2022/03/15 08:41:18;;;;;;;37.92;21.27;;;128.60;2252.80;;;;;;4901506;29;20056;-82
2022/03/15 08:43:44;;;;;;;26.35;17.88;;;128.80;2252.80;;;;;;4901171;29;20340;-80
2022/03/15 08:46:10;;;;;;;39.20;23.33;;;128.80;2252.80;;;;;;4901337;29;20083;-80
2022/03/15 08:48:36;;;;;;;34.67;23.42;;;128.90;2252.80;;;;;;4900911;29;20466;-76
2022/03/15 08:51:02;;;;;;;37.55;24.63;;;153.70;2252.80;;;;;;4900876;29;20058;-76
2022/03/15 08:53:34;;;;;;;40.33;24.55;;;153.90;2252.80;;;;;;4900929;29;20035;-75
2022/03/15 08:56:01;;;;;;;37.58;19.90;;;154.00;2252.80;;;;;;4901051;29;20075;-75
2022/03/15 08:58:27;;;;;;;35.38;21.05;;;154.10;2227.20;;;;;;4900657;29;20031;-77
2022/03/15 09:00:59;;;;;;;32.92;20.25;;;154.20;2227.20;;;;;;4900830;29;20024;-76
2022/03/15 09:03:25;;;;;;;29.02;20.67;;;154.00;2227.20;;;;;;4900845;29;20092;-76
2022/03/15 09:09:47;;;;;;;34.38;21.25;;;154.50;2150.40;;;;;;4804093;29;20382;-77
2022/03/15 09:12:54;;;;;;;41.90;24.02;;;179.30;2150.40;;;;;;4804182;29;20037;-76
2022/03/15 09:15:25;;;;;;;39.58;27.13;;;179.40;2124.80;;;;;;4817078;29;20137;-77
2022/03/15 09:17:51;;;;;;;38.70;25.70;;;179.50;2124.80;;;;;;4825614;29;20124;-77
2022/03/15 09:20:25;;;;;;;38.58;27.83;;;179.70;2124.80;;;;;;4858486;29;20130;-77
2022/03/15 09:22:51;;;;;;;35.70;21.95;;;179.80;2124.80;;;;;;4898846;29;20048;-75
2022/03/15 09:25:17;;;;;;;40.45;28.83;;;180.00;2124.80;;;;;;4917888;29;20450;-77
2022/03/15 09:27:44;;;;;;;40.20;24.73;;;180.10;2124.80;;;;;;4900266;29;20029;-73
2022/03/15 09:30:10;;;;;;;35.22;19.42;;;204.90;2073.60;;;;;;4900532;29;20024;-77
2022/03/15 09:32:36;;;;;;;39.75;21.17;;;204.90;2073.60;;;;;;4899878;29;20056;-77
2022/03/15 09:35:02;;;;;;;31.95;19.83;;;205.20;2073.60;;;;;;4900443;29;20481;-77
2022/03/15 09:37:28;;;;;;;32.08;19.27;;;205.20;2048.00;;;;;;4900146;29;20024;-78
2022/03/15 09:39:57;;;;;;;43.58;23.35;;;205.40;2022.40;;;;;;4917447;29;20022;-78
2022/03/15 09:42:24;;;;;;;41.47;20.67;;;205.60;2048.00;;;;;;4900317;29;20032;-77
2022/03/15 09:44:52;;;;;;;38.47;23.77;;;230.40;2022.40;;;;;;4900334;29;20024;-75
2022/03/15 09:47:23;;;;;;;35.35;19.48;;;230.50;1971.20;;;;;;4916843;29;20016;-78
2022/03/15 09:49:50;;;;;;;28.05;19.88;;;230.50;1920.00;;;;;;4917368;29;20115;-77
2022/03/15 09:52:18;;;;;;;26.90;19.83;;;230.60;1920.00;;;;;;4899246;29;20024;-76
2022/03/15 09:54:45;;;;;;;31.02;20.27;;;230.60;1920.00;;;;;;4916593;29;20024;-77
2022/03/15 09:57:12;;;;;;;29.20;19.10;;;230.60;1920.00;;;;;;4899921;29;20123;-77
2022/03/15 09:59:38;;;;;;;35.95;23.92;;;230.70;1868.80;;;;;;4916984;29;20070;-77
2022/03/15 10:02:04;;;;;;;34.42;22.25;;;230.80;1868.80;;;;;;4902781;29;20052;-78
2022/03/15 10:04:30;;;;;;;31.25;19.10;;;230.90;1868.80;;;;;;4921167;29;20040;-77
2022/03/15 10:06:58;;;;;;;25.20;16.42;;;230.90;1817.60;;;;;;4921038;29;20039;-76
2022/03/15 10:09:26;;;;;;;25.00;16.92;;;231.00;1792.00;;;;;;4903684;29;20028;-78
2022/03/15 10:11:53;;;;;;;23.65;16.67;;;231.10;1792.00;;;;;;4921174;29;20027;-77
2022/03/15 10:14:19;;;;;;;22.00;16.38;;;230.90;1792.00;;;;;;4920840;29;20028;-76
2022/03/15 10:16:46;;;;;;;29.33;19.77;;;231.20;1792.00;;;;;;4920773;29;20115;-78
2022/03/15 10:19:15;;;;;;;29.98;20.80;;;231.30;1792.00;;;;;;4903891;29;20059;-76
2022/03/15 10:21:52;;;;;;;41.50;24.35;;;256.00;1792.00;;;;;;4920413;29;20043;-77
2022/03/15 10:24:22;;;;;;;37.60;26.15;;;256.20;1792.00;;;;;;4903752;29;20347;-79
2022/03/15 10:26:49;;;;;;;33.60;23.83;;;256.30;1766.40;;;;;;4903754;29;20425;-77
2022/03/15 10:29:17;;;;;;;40.70;26.75;;;256.40;1792.00;;;;;;4903519;29;20128;-77
2022/03/15 10:31:44;;;;;;;35.88;24.75;;;256.50;1817.60;;;;;;4920787;29;20048;-78
2022/03/15 10:34:12;;;;;;;34.15;23.35;;;256.70;1843.20;;;;;;4920604;29;20076;-78
2022/03/15 10:36:44;;;;;;;36.92;20.52;;;256.70;1843.20;;;;;;4903426;29;20122;-77
2022/03/15 10:39:12;;;;;;;36.20;21.60;;;256.90;1766.40;;;;;;4920928;29;20028;-78
2022/03/15 10:41:59;;;;;;;44.97;27.23;;;281.80;1766.40;;;;;;4920201;29;20045;-74
2022/03/15 10:44:29;;;;;;;55.47;34.55;;;282.00;1766.40;;;;;;4910906;29;20148;-78
2022/03/15 10:47:01;;;;;;;44.60;28.73;;;282.20;1792.00;;;;;;4920876;29;20043;-74
2022/03/15 10:49:28;;;;;;;34.40;20.38;;;282.50;1740.80;;;;;;4902751;29;20028;-75
2022/03/15 10:51:54;;;;;;;32.63;19.98;;;307.30;1689.60;;;;;;4920498;29;20033;-76
2022/03/15 10:54:23;;;;;;;33.55;20.77;;;307.40;1715.20;;;;;;4919842;29;20453;-75
2022/03/15 10:56:59;;;;;;;33.97;22.95;;;307.60;1715.20;;;;;;4919838;29;20087;-75
2022/03/15 10:59:26;;;;;;;31.13;21.33;;;307.60;1689.60;;;;;;4920128;29;20454;-75
2022/03/15 11:01:52;;;;;;;43.95;25.40;;;307.60;1715.20;;;;;;4903198;29;20402;-75
2022/03/15 11:04:19;;;;;;;32.80;22.45;;;307.60;1715.20;;;;;;4920074;29;20106;-78
2022/03/15 11:06:50;;;;;;;34.50;22.80;;;307.80;1715.20;;;;;;4919765;29;20477;-76
2022/03/15 11:09:25;;;;;;;34.67;21.95;;;307.90;1715.20;;;;;;4902982;29;20083;-75
2022/03/15 11:12:05;;;;;;;33.92;21.30;;;308.00;1715.20;;;;;;4902580;29;20411;-76
2022/03/15 11:14:38;;;;;;;29.45;21.00;;;332.80;1689.60;;;;;;4919818;29;20026;-76
2022/03/15 11:17:25;;;;;;;40.28;23.90;;;333.00;1664.00;;;;;;4919467;29;20482;-75
2022/03/15 11:19:58;;;;;;;32.70;19.85;;;333.20;1664.00;;;;;;4919530;29;20020;-75
2022/03/15 11:22:36;;;;;;;31.88;20.10;;;333.40;1664.00;;;;;;4902871;29;20047;-75
2022/03/15 11:25:11;;;;;;;34.38;20.55;;;333.60;1612.80;;;;;;4919479;29;20099;-76
2022/03/15 11:27:42;;;;;;;33.88;24.13;;;358.50;1587.20;;;;;;4919726;29;20411;-75
2022/03/15 11:30:11;;;;;;;27.92;19.27;;;358.60;1536.00;;;;;;4919359;29;20055;-76
2022/03/15 11:32:38;;;;;;;29.10;19.55;;;358.80;1510.40;;;;;;4901907;29;20079;-75
2022/03/15 11:35:08;;;;;;;29.80;20.08;;;358.80;1536.00;;;;;;4902457;29;20483;-75
2022/03/15 11:37:35;;;;;;;31.80;22.42;;;358.90;1536.00;;;;;;4902468;29;20031;-78
2022/03/15 11:40:04;;;;;;;33.25;23.05;;;359.20;1536.00;;;;;;4901928;29;20075;-74
2022/03/15 11:42:32;;;;;;;26.23;19.80;;;384.20;1510.40;;;;;;4919764;29;20430;-75
2022/03/15 11:45:24;;;;;;;26.60;19.13;;;384.60;1484.80;;;;;;4919653;29;20035;-76
2022/03/15 11:48:36;;;;;;;34.28;20.98;;;384.90;1433.60;;;;;;4902519;29;20028;-76
2022/03/15 11:51:40;;;;;;;34.30;21.93;;;409.70;1459.20;;;;;;4916268;29;20108;-76
2022/03/15 11:54:18;;;;;;;36.67;22.95;;;410.10;1459.20;;;;;;4901802;29;20111;-75
2022/03/15 11:57:02;;;;;;;39.63;28.20;;;410.20;1510.40;;;;;;4919304;29;20020;-75
2022/03/15 11:59:47;;;;;;;37.03;21.52;;;410.50;1484.80;;;;;;4918568;29;20072;-77
2022/03/15 12:02:13;;;;;;;28.27;17.83;;;410.40;1459.20;;;;;;4902184;29;20375;-77
2022/03/15 12:04:45;;;;;;;36.08;21.33;;;410.50;1459.20;;;;;;4919542;29;20031;-76
2022/03/15 12:07:11;;;;;;;22.77;16.00;;;410.50;1433.60;;;;;;4918596;29;20020;-79
2022/03/15 12:09:45;;;;;;;66.40;41.08;;;410.50;1382.40;;;;;;4918644;29;20016;-76
2022/03/15 12:12:11;;;;;;;61.10;37.38;;;435.30;1408.00;;;;;;4901955;29;20020;-76
2022/03/15 12:14:43;;;;;;;26.27;11.45;;;435.40;1382.40;;;;;;4918485;29;20031;-77
2022/03/15 12:17:11;;;;;;;17.08;10.77;;;435.40;1331.20;;;;;;4918939;29;20054;-77
2022/03/15 12:19:47;;;;;;;18.33;12.07;;;435.70;1305.60;;;;;;4918429;29;20374;-77
2022/03/15 12:22:24;;;;;;;17.83;13.98;;;435.70;1331.20;;;;;;4901525;29;20024;-77
2022/03/15 12:25:09;;;;;;;17.67;11.93;;;435.90;1356.80;;;;;;4918072;29;20108;-76
2022/03/15 12:27:46;;;;;;;19.92;10.73;;;436.10;1305.60;;;;;;4901363;29;20039;-75
2022/03/15 12:30:18;;;;;;;18.25;12.23;;;436.10;1280.00;;;;;;4901659;29;20028;-76
2022/03/15 12:32:54;;;;;;;14.45;10.55;;;461.00;1280.00;;;;;;4901391;29;20036;-75
2022/03/15 12:35:32;;;;;;;17.52;10.15;;;461.00;1280.00;;;;;;4917866;29;20055;-76
2022/03/15 12:38:11;;;;;;;97.60;46.38;;;461.30;1280.00;;;;;;4901342;29;20079;-76
2022/03/15 12:40:44;;;;;;;19.98;12.13;;;461.30;1305.60;;;;;;4901266;29;20062;-77
2022/03/15 12:43:20;;;;;;;;;;;461.30;1280.00;;;;;;4918469;29;20035;-76
2022/03/15 12:45:47;;;;;;;21.05;15.18;;;461.60;1331.20;;;;;;4918136;29;20333;-76
2022/03/15 12:48:17;;;;;;;24.80;15.93;;;461.60;1305.60;;;;;;4918308;29;20363;-77
2022/03/15 12:50:43;;;;;;;24.45;16.23;;;461.70;1280.00;;;;;;4918128;29;20020;-76
2022/03/15 12:53:15;;;;;;;20.25;13.55;;;486.40;1305.60;;;;;;4918387;29;20463;-77
2022/03/15 12:55:42;;;;;;;17.97;9.37;;;486.50;1254.40;;;;;;4917488;29;20501;-77
2022/03/15 12:58:13;;;;;;;12.55;9.07;;;486.60;1228.80;;;;;;4918181;29;20020;-76
2022/03/15 13:00:42;;;;;;;21.05;16.05;;;486.40;1228.80;;;;;;4918093;29;20020;-78
2022/03/15 13:03:09;;;;;;;16.92;11.85;;;486.60;1305.60;;;;;;4900903;29;20383;-76
2022/03/15 13:05:41;;;;;;;11.82;8.52;;;486.90;1305.60;;;;;;4918487;29;20417;-76
2022/03/15 13:08:07;;;;;;;13.73;9.70;;;486.70;1254.40;;;;;;4900623;29;20047;-75
2022/03/15 13:10:44;;;;;;;22.88;16.02;;;487.00;1254.40;;;;;;4917831;29;20110;-77
2022/03/15 13:13:21;;;;;;;16.30;11.80;;;487.00;1228.80;;;;;;4917528;29;20056;-76
2022/03/15 13:15:59;;;;;;;10.10;7.70;;;487.20;1203.20;;;;;;4918215;29;20032;-75
2022/03/15 13:18:25;;;;;;;17.45;10.23;;;486.80;1177.60;;;;;;4900537;29;20032;-77
2022/03/15 13:21:01;;;;;;;16.65;10.45;;;487.00;1203.20;;;;;;4917256;29;20023;-77
2022/03/15 13:23:28;;;;;;;14.05;9.05;;;487.10;1203.20;;;;;;4917865;29;20028;-77
2022/03/15 13:26:01;;;;;;;14.02;10.85;;;487.20;1203.20;;;;;;4900809;29;20375;-77
2022/03/15 13:28:34;;;;;;;20.67;13.02;;;487.30;1203.20;;;;;;4917258;29;20028;-76
2022/03/15 13:31:06;;;;;;;20.73;12.50;;;487.10;1203.20;;;;;;4900487;29;20063;-77
2022/03/15 13:33:40;;;;;;;;;;;487.10;1203.20;;;;;;4917799;29;20463;-77
2022/03/15 13:36:10;;;;;;;14.85;9.18;;;487.00;1177.60;;;;;;4900502;29;19918;-76
2022/03/15 13:38:44;;;;;;;16.60;10.88;;;486.90;1152.00;;;;;;4900727;29;20486;-76
2022/03/15 13:41:10;;;;;;;18.55;8.90;;;486.90;1203.20;;;;;;4917344;29;20024;-78
2022/03/15 13:43:38;;;;;;;22.92;13.18;;;487.10;1177.60;;;;;;4900600;29;20131;-75
2022/03/15 13:46:06;;;;;;;34.92;31.42;;;512.10;1254.40;;;;;;4917567;29;20028;-76
2022/03/15 13:48:37;;;;;;;15.90;9.18;;;486.60;1228.80;;;;;;4916785;29;20024;-76
2022/03/15 13:51:26;;;;;;;13.45;7.95;;;486.70;1177.60;;;;;;4917553;29;20020;-77
2022/03/15 13:54:06;;;;;;;18.90;10.40;;;486.40;1177.60;;;;;;4930929;29;20024;-74
2022/03/15 13:56:52;;;;;;;15.10;10.38;;;486.90;1203.20;;;;;;4903213;29;20032;-80
2022/03/15 13:59:26;;;;;;;15.00;10.25;;;487.20;1203.20;;;;;;4917220;29;20386;-78
2022/03/15 14:01:58;;;;;;;16.73;10.52;;;512.00;1228.80;;;;;;4900447;29;20020;-79
2022/03/15 14:04:29;;;;;;;10.77;7.38;;;512.10;1228.80;;;;;;4900428;29;20028;-77
2022/03/15 14:07:01;;;;;;;14.25;9.45;;;512.10;1177.60;;;;;;4917333;29;20026;-76
2022/03/15 14:09:36;;;;;;;16.97;11.37;;;487.10;1152.00;;;;;;4899998;29;20370;-76
2022/03/15 14:12:14;;;;;;;16.65;13.25;;;486.60;1203.20;;;;;;4917546;29;20107;-77
2022/03/15 14:14:53;;;;;;;13.90;9.82;;;461.70;1228.80;;;;;;4900355;29;20028;-76
2022/03/15 14:17:24;;;;;;;16.33;10.38;;;461.40;1280.00;;;;;;4899986;29;20028;-77
2022/03/15 14:19:55;;;;;;;10.68;8.27;;;461.10;1280.00;;;;;;4899785;29;20032;-76
2022/03/15 14:22:23;;;;;;;15.88;11.73;;;461.00;1254.40;;;;;;4900308;29;20020;-78
2022/03/15 14:24:50;;;;;;;13.07;8.98;;;461.30;1228.80;;;;;;4916877;29;20030;-77
2022/03/15 14:27:16;;;;;;;12.75;8.18;;;461.60;1228.80;;;;;;4900148;29;20125;-77
2022/03/15 14:29:54;;;;;;;18.77;10.27;;;461.70;1254.40;;;;;;4917095;29;20028;-77
2022/03/15 14:32:21;;;;;;;29.65;15.25;;;486.50;1254.40;;;;;;4916627;29;20044;-78
2022/03/15 14:35:14;;;;;;;12.90;9.48;;;486.60;1280.00;;;;;;4916922;29;20039;-77
2022/03/15 14:37:39;;;;;;;17.42;11.05;;;486.60;1254.40;;;;;;4899557;29;20039;-76
2022/03/15 14:40:07;;;;;;;18.17;13.25;;;486.50;1254.40;;;;;;4899788;29;20028;-75
2022/03/15 14:42:35;;;;;;;28.33;13.32;;;486.60;1228.80;;;;;;4899941;29;20031;-77
2022/03/15 14:45:06;;;;;;;14.20;9.90;;;486.40;1228.80;;;;;;4916558;29;20363;-77
2022/03/15 14:47:33;;;;;;;16.92;12.35;;;461.60;1254.40;;;;;;4918662;29;20032;-77
2022/03/15 14:49:59;;;;;;;16.98;13.13;;;461.40;1177.60;;;;;;4903331;29;20159;-76
2022/03/15 14:52:25;;;;;;;30.23;21.08;;;461.20;1254.40;;;;;;4920223;29;20103;-77
2022/03/15 14:54:53;;;;;;;28.27;18.70;;;460.90;1305.60;;;;;;4920087;29;20032;-77
2022/03/15 14:57:21;;;;;;;16.73;11.98;;;436.10;1305.60;;;;;;4903188;29;20076;-77
2022/03/15 14:59:52;;;;;;;20.23;11.52;;;435.90;1331.20;;;;;;4919928;29;20372;-76
2022/03/15 15:02:20;;;;;;;16.38;10.90;;;435.50;1331.20;;;;;;4920206;29;20451;-76
2022/03/15 15:04:50;;;;;;;12.90;8.80;;;435.50;1331.20;;;;;;4903028;29;20168;-75
2022/03/15 15:07:17;;;;;;;14.13;9.75;;;435.30;1331.20;;;;;;4919920;29;20024;-78
2022/03/15 15:09:43;;;;;;;17.65;13.20;;;435.20;1280.00;;;;;;4903063;29;20028;-77
2022/03/15 15:12:14;;;;;;;15.98;11.55;;;410.50;1305.60;;;;;;4902775;29;20339;-76
2022/03/15 15:14:47;;;;;;;25.83;17.67;;;410.20;1356.80;;;;;;4902998;29;20028;-76
2022/03/15 15:17:18;;;;;;;34.83;24.77;;;410.30;1356.80;;;;;;4902938;29;20037;-77
2022/03/15 15:19:47;;;;;;;31.52;22.13;;;410.20;1382.40;;;;;;4902533;29;20114;-77
2022/03/15 15:22:13;;;;;;;20.10;15.63;;;410.00;1382.40;;;;;;4902968;29;20421;-79
2022/03/15 15:24:39;;;;;;;15.85;11.95;;;409.90;1382.40;;;;;;4919402;29;20051;-77
2022/03/15 15:27:06;;;;;;;19.60;14.38;;;409.80;1356.80;;;;;;4902295;29;20065;-76
2022/03/15 15:29:39;;;;;;;37.78;25.08;;;409.70;1382.40;;;;;;4919662;29;20028;-78
2022/03/15 15:32:14;;;;;;;39.03;29.48;;;409.70;1356.80;;;;;;4919162;29;20131;-77
2022/03/15 15:34:42;;;;;;;46.97;33.42;;;409.70;1331.20;;;;;;4902212;29;20424;-77
2022/03/15 15:37:08;;;;;;;35.63;24.10;;;409.60;1356.80;;;;;;4902464;29;20089;-78
2022/03/15 15:39:34;;;;;;;34.22;24.05;;;384.90;1356.80;;;;;;4919716;29;20020;-77
2022/03/15 15:42:00;;;;;;;46.13;32.30;;;384.90;1356.80;;;;;;4902133;29;20024;-78
2022/03/15 15:44:28;;;;;;;47.70;35.90;;;384.80;1382.40;;;;;;4919647;29;20055;-76
2022/03/15 15:46:59;;;;;;;47.78;29.77;;;384.70;1433.60;;;;;;4918817;29;20104;-76
2022/03/15 15:49:25;;;;;;;85.70;60.63;;;384.60;1433.60;;;;;;4902141;29;20021;-78
2022/03/15 15:51:57;;;;;;;89.35;57.35;;;384.50;1408.00;;;;;;4919060;29;20099;-77
2022/03/15 15:54:24;;;;;;;101.68;66.40;;;384.50;1433.60;;;;;;4918641;29;20530;-77
2022/03/15 15:56:51;;;;;;;145.40;92.72;;;384.40;1510.40;;;;;;4902212;29;20028;-75
2022/03/15 15:59:21;;;;;;;117.35;76.35;;;384.30;1484.80;;;;;;4917984;29;20050;-79
2022/03/15 16:01:48;;;;;;;86.45;59.08;;;384.20;1536.00;;;;;;4901629;29;20063;-75
2022/03/15 16:04:19;;;;;;;81.85;51.30;;;384.10;1510.40;;;;;;4918916;29;20099;-77
2022/03/15 16:06:46;;;;;;;67.05;47.10;;;384.00;1561.60;;;;;;4902001;29;20035;-79
2022/03/15 16:09:20;;;;;;;52.85;37.13;;;359.20;1587.20;;;;;;4901576;29;20123;-77
2022/03/15 16:11:47;;;;;;;52.75;31.25;;;359.00;1638.40;;;;;;4901578;29;20035;-76
2022/03/15 16:14:14;;;;;;;32.92;24.40;;;358.80;1664.00;;;;;;4901756;29;20032;-77
2022/03/15 16:16:44;;;;;;;55.42;40.78;;;358.50;1689.60;;;;;;4901371;29;20039;-76
2022/03/15 16:19:10;;;;;;;44.13;30.85;;;358.40;1664.00;;;;;;4901618;29;20024;-78
2022/03/15 16:21:39;;;;;;;70.93;50.80;;;358.40;1689.60;;;;;;4901526;29;20031;-78
2022/03/15 16:24:05;;;;;;;108.82;75.47;;;333.50;1715.20;;;;;;4901279;29;20262;-79
2022/03/15 16:26:32;;;;;;;104.28;74.45;;;333.40;1664.00;;;;;;4901642;29;20024;-78
2022/03/15 16:28:58;;;;;;;96.03;67.00;;;333.40;1715.20;;;;;;4901023;29;20030;-79
2022/03/15 16:31:29;;;;;;;89.60;62.78;;;333.60;1715.20;;;;;;4900629;29;20044;-79
2022/03/15 16:33:55;;;;;;;99.00;59.38;;;333.10;1689.60;;;;;;4901560;29;20119;-79
2022/03/15 16:36:21;;;;;;;89.65;54.25;;;333.00;1715.20;;;;;;4901208;29;20064;-80
2022/03/15 16:38:47;;;;;;;100.85;53.78;;;332.90;1715.20;;;;;;4901311;29;20032;-74
2022/03/15 16:41:13;;;;;;;81.38;53.70;;;332.80;1740.80;;;;;;4901381;29;20020;-76
2022/03/15 16:43:39;;;;;;;77.60;48.10;;;308.10;1740.80;;;;;;4917977;29;20032;-77
2022/03/15 16:46:08;;;;;;;101.43;66.50;;;307.90;1766.40;;;;;;4901312;29;20374;-76
2022/03/15 16:48:36;;;;;;;91.85;63.53;;;307.80;1740.80;;;;;;4901319;29;20522;-76
2022/03/15 16:51:02;;;;;;;79.95;57.55;;;307.70;1766.40;;;;;;4900809;29;20478;-79
2022/03/15 16:53:28;;;;;;;91.68;62.15;;;307.60;1792.00;;;;;;4900800;29;20029;-75
2022/03/15 16:55:54;;;;;;;106.50;74.88;;;307.40;1817.60;;;;;;4901553;29;20064;-77
2022/03/15 17:01:06;;;;;;;129.80;91.57;;;307.30;1868.80;;;;;;4917939;29;20031;-76
2022/03/15 17:06:17;;;;;;;151.48;99.97;;;282.50;1843.20;;;;;;4917920;29;20067;-78
2022/03/15 17:08:43;;;;;;;158.27;105.07;;;282.40;1868.80;;;;;;4918216;29;20120;-77
2022/03/15 17:11:10;;;;;;;171.52;108.22;;;282.30;1868.80;;;;;;4900584;29;20514;-77
2022/03/15 17:13:37;;;;;;;176.05;113.93;;;282.20;1894.40;;;;;;4900833;29;20028;-76
2022/03/15 17:16:03;;;;;;;173.63;112.90;;;282.20;1894.40;;;;;;4907843;29;20032;-74
2022/03/15 17:18:29;;;;;;;182.38;122.15;;;282.00;1894.40;;;;;;4903639;29;20119;-80
2022/03/15 17:20:55;;;;;;;223.63;139.52;;;282.10;1894.40;;;;;;4901159;29;20119;-81
2022/03/15 17:23:36;;;;;;;278.98;168.23;;;282.00;1894.40;;;;;;4900908;29;20446;-78
2022/03/15 17:26:09;;;;;;;305.30;184.32;;;282.20;1894.40;;;;;;4900701;29;20024;-79
2022/03/15 17:28:41;;;;;;;283.95;170.82;;;282.10;1894.40;;;;;;4900727;29;20123;-78
2022/03/15 17:31:12;;;;;;;216.45;131.35;;;282.20;1894.40;;;;;;4928493;29;20043;-77
2022/03/15 17:33:41;;;;;;;225.75;145.07;;;282.20;1894.40;;;;;;4919011;29;20130;-78
2022/03/15 17:36:09;;;;;;;171.20;115.13;;;282.10;1894.40;;;;;;4919519;29;20024;-79
2022/03/15 17:38:36;;;;;;;155.68;108.57;;;282.00;1894.40;;;;;;4919678;29;20027;-79
2022/03/15 17:41:02;;;;;;;140.60;98.25;;;281.90;1894.40;;;;;;4919166;29;20023;-78
2022/03/15 17:43:28;;;;;;;155.13;108.68;;;281.70;1920.00;;;;;;4936481;29;20086;-79
2022/03/15 17:45:55;;;;;;;139.30;96.65;;;281.70;1894.40;;;;;;4919169;29;20063;-79
2022/03/15 17:48:22;;;;;;;118.82;80.18;;;281.70;1894.40;;;;;;4919512;29;20034;-80
2022/03/15 17:50:49;;;;;;;112.13;74.65;;;281.60;1868.80;;;;;;4919389;29;20024;-79
2022/03/15 17:53:19;;;;;;;128.93;88.68;;;281.60;1894.40;;;;;;4936019;29;20560;-81
2022/03/15 17:55:45;;;;;;;142.18;95.18;;;256.70;1920.00;;;;;;4919250;29;20023;-80
2022/03/15 17:58:13;;;;;;;170.10;117.85;;;256.90;1920.00;;;;;;4919342;29;20024;-80
2022/03/15 18:00:40;;;;;;;184.68;121.22;;;256.80;1945.60;;;;;;4918788;29;20541;-74
2022/03/15 18:03:09;;;;;;;283.90;197.43;;;256.70;1945.60;;;;;;4918906;29;20130;-75
2022/03/15 18:06:16;;;;;;;301.00;201.57;;;256.70;1971.20;;;;;;4919107;29;20036;-76
2022/03/15 18:08:42;;;;;;;281.52;182.88;;;256.60;1996.80;;;;;;4913135;29;20035;-76
2022/03/15 18:11:40;;;;;;;298.85;199.68;;;256.50;2022.40;;;;;;4935758;29;20024;-76
2022/03/15 18:14:27;;;;;;;296.70;200.95;;;256.30;2048.00;;;;;;4906324;29;20046;-76
2022/03/15 18:16:55;;;;;;;287.42;193.23;;;256.20;2048.00;;;;;;4918491;29;20030;-76
2022/03/15 18:19:27;;;;;;;241.60;163.88;;;256.20;2048.00;;;;;;4918246;29;20110;-76
2022/03/15 18:21:58;;;;;;;222.93;152.00;;;256.20;2073.60;;;;;;4919554;29;20024;-76
2022/03/15 18:24:56;;;;;;;205.18;134.48;;;256.10;2048.00;;;;;;4922578;29;20027;-76
2022/03/15 18:28:07;;;;;;;230.40;147.98;;;256.00;2073.60;;;;;;4922067;29;20039;-76
2022/03/15 18:34:13;;;;;;;221.15;139.90;;;231.30;2073.60;;;;;;4892406;29;20046;-77
2022/03/15 18:37:27;;;;;;;214.98;132.07;;;231.20;2073.60;;;;;;4922023;29;20047;-76
2022/03/15 18:39:56;;;;;;;193.65;131.38;;;231.20;2048.00;;;;;;4922052;29;20075;-75
2022/03/15 18:42:22;;;;;;;286.92;186.23;;;231.20;2048.00;;;;;;4921813;29;20024;-75
2022/03/15 18:44:48;;;;;;;342.08;216.70;;;231.00;2073.60;;;;;;4939132;29;20024;-76
2022/03/15 18:47:17;;;;;;;404.95;244.10;;;231.00;2124.80;;;;;;4921950;29;20474;-76
2022/03/15 18:49:54;;;;;;;300.23;183.73;;;231.10;2124.80;;;;;;4921712;29;20024;-77
2022/03/15 18:52:47;;;;;;;307.23;189.13;;;231.00;2124.80;;;;;;4921352;29;20492;-76
2022/03/15 18:55:13;;;;;;;429.40;260.50;;;230.80;2124.80;;;;;;4921829;29;20051;-77
2022/03/15 18:57:48;;;;;;;390.38;236.68;;;230.80;2124.80;;;;;;4921310;29;20032;-77
2022/03/15 19:00:14;;;;;;;305.75;195.32;;;230.70;2124.80;;;;;;4921954;29;20115;-76
2022/03/15 19:02:44;;;;;;;274.42;171.80;;;230.70;2150.40;;;;;;4938832;29;20056;-75
2022/03/15 19:05:10;;;;;;;253.75;159.07;;;230.40;2176.00;;;;;;4921781;29;20110;-77
2022/03/15 19:07:43;;;;;;;412.15;251.05;;;230.60;2150.40;;;;;;4921946;29;20027;-78
2022/03/15 19:10:09;;;;;;;227.73;156.20;;;230.50;2176.00;;;;;;4921266;29;20474;-78
2022/03/15 19:12:38;;;;;;;271.00;175.57;;;230.50;2150.40;;;;;;4921888;29;20073;-80
2022/03/15 19:15:56;;;;;;;308.65;198.10;;;230.50;2176.00;;;;;;4921761;29;20538;-77
2022/03/15 19:18:15;;;;;;;317.90;208.77;;;230.50;2176.00;;;;;;4936128;29;20055;-80
2022/03/15 19:20:43;;;;;;;351.83;230.57;;;230.50;2201.60;;;;;;4921780;29;20085;-79
2022/03/15 19:23:12;;;;;;;366.17;239.32;;;230.40;2201.60;;;;;;4921688;29;20027;-80
2022/03/15 19:25:38;;;;;;;291.27;192.07;;;230.40;2201.60;;;;;;4921131;29;20343;-79
2022/03/15 19:28:08;;;;;;;361.52;231.32;;;205.20;2201.60;;;;;;4921484;29;20087;-79
2022/03/15 19:31:06;;;;;;;429.35;276.63;;;205.70;2227.20;;;;;;4921499;29;20020;-80
2022/03/15 19:33:33;;;;;;;346.08;226.70;;;230.40;2227.20;;;;;;4920873;29;20130;-78
2022/03/15 19:36:00;;;;;;;263.77;170.18;;;230.40;2227.20;;;;;;4938292;29;20019;-79
2022/03/15 19:38:26;;;;;;;243.23;156.23;;;230.40;2227.20;;;;;;4920940;29;20016;-79